Time;durP1;ratioP1;P1;durP2;ratioP2;P2;SDS_P1;SDS_P2;PMS_P1;PMS_P2;Temp;Humidity;BMP_temperature;BMP_pressure;BME280_temperature;BME280_humidity;BME280_pressure;Samples;Min_cycle;Max_cycle;Signal;HPM_P1;HPM_P2
2023/01/24 00:01:27;;;;;;;28.65;12.25;;;;;;;4.42;100.00;103406.81;5032846;28;20371;-77
2023/01/24 00:03:54;;;;;;;29.33;11.45;;;;;;;4.37;100.00;103395.94;5027980;28;20135;-76
2023/01/24 00:06:21;;;;;;;27.77;12.50;;;;;;;4.37;100.00;103390.44;5023682;28;20093;-76
2023/01/24 00:08:48;;;;;;;29.48;13.68;;;;;;;4.38;100.00;103394.00;5024430;28;20044;-77
2023/01/24 00:11:14;;;;;;;26.42;13.75;;;;;;;4.36;100.00;103399.75;5027931;28;20053;-75
2023/01/24 00:13:41;;;;;;;29.73;13.43;;;;;;;4.38;100.00;103399.47;5024099;28;20932;-77
2023/01/24 00:16:12;;;;;;;29.20;13.68;;;;;;;4.35;100.00;103408.28;5028988;28;20048;-75
2023/01/24 00:18:40;;;;;;;30.08;15.60;;;;;;;4.36;100.00;103399.75;5022445;28;20054;-77
2023/01/24 00:21:12;;;;;;;26.42;11.50;;;;;;;4.38;100.00;103403.03;5031086;28;20051;-77
2023/01/24 00:23:40;;;;;;;25.75;10.93;;;;;;;4.33;100.00;103394.88;5017678;28;20140;-77
2023/01/24 00:26:07;;;;;;;25.58;11.00;;;;;;;4.37;100.00;103395.09;5025623;28;20140;-75
2023/01/24 00:28:35;;;;;;;25.38;11.77;;;;;;;4.30;100.00;103392.72;5023445;28;20122;-77
2023/01/24 00:31:03;;;;;;;27.67;12.57;;;;;;;4.29;100.00;103398.50;5027143;28;20064;-77
2023/01/24 00:33:29;;;;;;;20.55;8.68;;;;;;;4.31;100.00;103401.75;5027594;28;20044;-77
2023/01/24 00:35:56;;;;;;;23.35;10.82;;;;;;;4.25;100.00;103389.22;5027028;28;20570;-75
2023/01/24 00:38:22;;;;;;;29.77;15.45;;;;;;;4.27;100.00;103400.69;5024666;28;20049;-76
2023/01/24 00:40:50;;;;;;;22.73;9.73;;;;;;;4.27;100.00;103395.22;5019568;28;20045;-76
2023/01/24 00:43:17;;;;;;;25.40;10.45;;;;;;;4.27;100.00;103397.94;5022180;28;20053;-75
2023/01/24 00:45:44;;;;;;;21.20;8.52;;;;;;;4.28;100.00;103392.19;5027427;28;20076;-76
2023/01/24 00:48:12;;;;;;;22.55;10.63;;;;;;;4.27;100.00;103385.06;5021383;28;20049;-75
2023/01/24 00:50:39;;;;;;;22.95;10.40;;;;;;;4.27;100.00;103374.13;5026131;28;20064;-76
2023/01/24 00:53:05;;;;;;;24.35;10.35;;;;;;;4.21;100.00;103369.78;5022301;28;20049;-77
2023/01/24 00:55:32;;;;;;;25.25;11.32;;;;;;;4.25;100.00;103370.03;5026639;28;20053;-76
2023/01/24 00:57:59;;;;;;;22.75;10.60;;;;;;;4.23;100.00;103378.56;5021436;28;20063;-77
2023/01/24 01:00:25;;;;;;;21.35;9.38;;;;;;;4.19;100.00;103377.47;5028118;28;20052;-76
2023/01/24 01:02:52;;;;;;;21.40;8.63;;;;;;;4.18;100.00;103381.31;5028088;28;20045;-76
2023/01/24 01:05:19;;;;;;;16.45;7.10;;;;;;;4.17;100.00;103384.34;5027104;28;20045;-76
2023/01/24 01:07:46;;;;;;;22.73;10.38;;;;;;;4.22;100.00;103387.84;5028946;28;20521;-75
2023/01/24 01:10:12;;;;;;;22.20;9.40;;;;;;;4.14;100.00;103385.75;5026895;28;20047;-77
2023/01/24 01:12:39;;;;;;;19.88;8.40;;;;;;;4.16;100.00;103397.25;5030376;28;20076;-77
2023/01/24 01:15:06;;;;;;;24.05;11.88;;;;;;;4.18;100.00;103399.69;5025319;28;20053;-76
2023/01/24 01:17:33;;;;;;;26.10;12.05;;;;;;;4.22;100.00;103414.47;5022873;28;20070;-76
2023/01/24 01:19:59;;;;;;;20.65;9.00;;;;;;;4.21;100.00;103408.16;5017798;28;20704;-76
2023/01/24 01:22:26;;;;;;;23.70;12.13;;;;;;;4.21;100.00;103408.16;5016814;28;20049;-75
2023/01/24 01:24:52;;;;;;;22.58;11.20;;;;;;;4.17;100.00;103406.28;5024856;28;20056;-76
2023/01/24 01:27:19;;;;;;;21.55;9.93;;;;;;;4.19;100.00;103412.31;5028210;28;20045;-75
2023/01/24 01:29:45;;;;;;;22.17;10.20;;;;;;;4.17;100.00;103407.09;5024297;28;20068;-76
2023/01/24 01:32:12;;;;;;;25.33;11.68;;;;;;;4.18;100.00;103407.91;5022501;28;20052;-76
2023/01/24 01:34:39;;;;;;;26.48;11.52;;;;;;;4.17;100.00;103409.84;5023967;28;20045;-76
2023/01/24 01:37:05;;;;;;;15.85;6.50;;;;;;;4.15;100.00;103414.78;5028124;28;20044;-74
2023/01/24 01:39:31;;;;;;;21.23;9.57;;;;;;;4.14;100.00;103407.69;5024475;28;20052;-77
2023/01/24 01:41:58;;;;;;;23.20;11.38;;;;;;;4.17;100.00;103406.28;5026921;28;20806;-78
2023/01/24 01:44:37;;;;;;;23.42;8.55;;;;;;;4.14;100.00;103410.44;5025902;28;20052;-76
2023/01/24 01:47:16;;;;;;;19.45;8.82;;;;;;;4.13;100.00;103405.22;5023387;28;20056;-76
2023/01/24 01:49:59;;;;;;;21.15;9.85;;;;;;;4.20;100.00;103409.28;5021465;28;20057;-77
2023/01/24 01:52:29;;;;;;;12.13;4.60;;;;;;;4.18;100.00;103407.91;5022789;28;20055;-77
2023/01/24 01:55:01;;;;;;;22.98;9.55;;;;;;;4.18;100.00;103406.00;5027362;28;20166;-77
2023/01/24 01:57:31;;;;;;;20.63;8.70;;;;;;;4.18;100.00;103407.91;5025558;28;20040;-74
2023/01/24 02:00:04;;;;;;;19.08;7.93;;;;;;;4.19;100.00;103404.09;5026964;28;20896;-77
2023/01/24 02:02:31;;;;;;;23.67;10.52;;;;;;;4.16;100.00;103393.69;5027402;28;20883;-76
2023/01/24 02:05:01;;;;;;;21.52;9.27;;;;;;;4.15;100.00;103405.78;5024562;28;20045;-77
2023/01/24 02:07:52;;;;;;;20.00;9.48;;;;;;;4.14;100.00;103396.72;5027548;28;20554;-75
2023/01/24 02:10:22;;;;;;;20.80;9.43;;;;;;;4.15;100.00;103395.59;5028027;28;20041;-77
2023/01/24 02:12:52;;;;;;;26.63;10.82;;;;;;;4.14;100.00;103402.19;5026755;28;20067;-76
2023/01/24 02:18:13;;;;;;;22.52;10.88;;;;;;;4.17;100.00;103395.31;5021490;28;20055;-75
2023/01/24 02:20:47;;;;;;;29.35;13.90;;;;;;;4.02;100.00;103377.09;5020789;28;20044;-75
2023/01/24 02:23:25;;;;;;;28.27;12.13;;;;;;;4.17;100.00;103392.56;5013010;28;20056;-76
2023/01/24 02:26:12;;;;;;;28.58;13.10;;;;;;;4.18;100.00;103386.81;5022069;28;20796;-77
2023/01/24 02:28:59;;;;;;;26.90;12.05;;;;;;;4.16;100.00;103380.81;5021959;28;20048;-74
2023/01/24 02:31:26;;;;;;;20.83;9.98;;;;;;;4.14;100.00;103376.72;5016310;28;20199;-76
2023/01/24 02:33:52;;;;;;;21.55;9.45;;;;;;;4.16;100.00;103380.81;5021251;28;20076;-76
2023/01/24 02:36:24;;;;;;;22.42;10.02;;;;;;;4.13;100.00;103389.63;5021961;28;20895;-75
2023/01/24 02:38:57;;;;;;;21.70;9.82;;;;;;;4.14;100.00;103376.72;5016559;28;20866;-75
2023/01/24 02:41:29;;;;;;;24.73;10.38;;;;;;;4.13;100.00;103375.91;5022720;28;20106;-74
2023/01/24 02:44:02;;;;;;;21.02;8.52;;;;;;;4.15;100.00;103381.09;5017323;28;20045;-75
2023/01/24 02:46:29;;;;;;;21.08;9.18;;;;;;;4.14;100.00;103368.50;5025473;28;20045;-76
2023/01/24 02:48:56;;;;;;;24.67;10.32;;;;;;;4.12;100.00;103371.50;5024155;28;20060;-76
2023/01/24 02:54:07;;;;;;;23.25;10.35;;;;;;;4.13;100.00;103378.66;5022643;28;20049;-76
2023/01/24 02:59:19;;;;;;;23.85;9.75;;;;;;;4.14;100.00;103384.94;4996480;28;20055;-77
2023/01/24 03:01:45;;;;;;;22.15;7.70;;;;;;;4.09;100.00;103374.03;5028761;28;20065;-75
2023/01/24 03:04:13;;;;;;;20.88;9.30;;;;;;;4.13;100.00;103383.31;5043224;28;20048;-76
2023/01/24 03:06:39;;;;;;;23.70;9.63;;;;;;;4.12;100.00;103371.50;5047324;28;20044;-76
2023/01/24 03:09:18;;;;;;;17.23;6.63;;;;;;;4.10;100.00;103371.00;5045306;28;20067;-77
2023/01/24 03:11:46;;;;;;;20.95;8.35;;;;;;;4.11;100.00;103369.91;5047584;28;20485;-76
2023/01/24 03:36:31;;;;;;;23.42;10.25;;;;;;;4.10;100.00;103365.53;5047724;28;20045;-76
2023/01/24 03:41:42;;;;;;;21.85;8.73;;;;;;;4.08;100.00;103370.47;5051055;28;20045;-77
2023/01/24 03:44:09;;;;;;;19.65;8.05;;;;;;;4.09;100.00;103372.09;5049161;28;20075;-74
2023/01/24 03:46:39;;;;;;;21.98;9.20;;;;;;;4.10;100.00;103372.94;5050085;28;20418;-74
2023/01/24 03:49:07;;;;;;;28.52;12.23;;;;;;;4.04;100.00;103377.63;5050004;28;20053;-76
2023/01/24 03:54:18;;;;;;;23.90;11.00;;;;;;;4.07;100.00;103376.25;5046937;28;20075;-76
2023/01/24 03:56:45;;;;;;;24.50;10.45;;;;;;;4.08;100.00;103380.63;5050633;28;20080;-76
2023/01/24 03:59:11;;;;;;;21.35;8.93;;;;;;;4.08;100.00;103378.69;5050841;28;20045;-75
2023/01/24 04:01:38;;;;;;;24.70;10.23;;;;;;;4.07;100.00;103376.25;5049111;28;20517;-75
2023/01/24 04:04:05;;;;;;;23.10;10.32;;;;;;;4.09;100.00;103368.56;5049156;28;20115;-75
2023/01/24 04:06:31;;;;;;;20.30;8.20;;;;;;;4.08;100.00;103369.69;5050350;28;20064;-75
2023/01/24 04:08:58;;;;;;;22.55;9.50;;;;;;;4.11;100.00;103374.56;5050485;28;20045;-75
2023/01/24 04:11:24;;;;;;;24.70;10.35;;;;;;;4.09;100.00;103361.13;5050727;28;20049;-75
2023/01/24 04:13:51;;;;;;;22.05;10.07;;;;;;;4.07;100.00;103368.84;5049886;28;20048;-76
2023/01/24 04:16:17;;;;;;;23.20;9.43;;;;;;;4.04;100.00;103352.97;5045074;28;20041;-75
2023/01/24 04:18:44;;;;;;;20.60;7.65;;;;;;;3.99;100.00;103355.78;5050351;28;20060;-76
2023/01/24 04:21:10;;;;;;;24.25;11.00;;;;;;;4.01;100.00;103352.72;5050168;28;20061;-76
2023/01/24 04:23:37;;;;;;;23.67;9.52;;;;;;;4.01;100.00;103350.81;5048800;28;20808;-76
2023/01/24 04:26:04;;;;;;;22.35;10.43;;;;;;;4.01;100.00;103355.47;5050501;28;20044;-75
2023/01/24 04:28:31;;;;;;;22.65;10.45;;;;;;;3.98;100.00;103354.13;5048760;28;20041;-76
2023/01/24 04:30:59;;;;;;;22.92;9.98;;;;;;;4.00;100.00;103365.63;5046587;28;20519;-74
2023/01/24 04:33:26;;;;;;;24.55;10.77;;;;;;;4.02;100.00;103359.88;5049129;28;20048;-76
2023/01/24 04:35:57;;;;;;;28.35;12.98;;;;;;;3.96;100.00;103356.38;5049479;28;20051;-76
2023/01/24 04:38:24;;;;;;;26.80;12.85;;;;;;;3.99;100.00;103363.19;5049941;28;20045;-76
2023/01/24 04:41:00;;;;;;;28.00;11.77;;;;;;;3.99;100.00;103360.44;5050112;28;20126;-76
2023/01/24 04:43:27;;;;;;;18.85;6.00;;;;;;;3.99;100.00;103358.53;5047458;28;20099;-77
2023/01/24 04:45:55;;;;;;;26.02;11.80;;;;;;;4.01;100.00;103361.78;5044628;28;20116;-75
2023/01/24 04:48:22;;;;;;;23.48;10.85;;;;;;;3.98;100.00;103353.34;5047073;28;20060;-76
2023/01/24 04:50:48;;;;;;;27.95;12.38;;;;;;;4.00;100.00;103353.84;5049885;28;20768;-77
2023/01/24 04:53:15;;;;;;;28.23;13.23;;;;;;;3.98;100.00;103348.66;5049019;28;20047;-77
2023/01/24 04:55:41;;;;;;;23.58;9.82;;;;;;;3.97;100.00;103355.25;5049233;28;20124;-77
2023/01/24 04:58:08;;;;;;;25.25;11.07;;;;;;;3.93;100.00;103367.91;5050322;28;20047;-77
2023/01/24 05:00:34;;;;;;;23.27;10.23;;;;;;;3.97;100.00;103359.91;5047932;28;20055;-76
2023/01/24 05:03:01;;;;;;;25.15;11.25;;;;;;;3.97;100.00;103368.94;5047190;28;20067;-75
2023/01/24 05:05:27;;;;;;;17.98;7.88;;;;;;;3.96;100.00;103367.31;5048063;28;20045;-76
2023/01/24 05:07:54;;;;;;;23.67;9.85;;;;;;;3.95;100.00;103367.59;5048953;28;20411;-76
2023/01/24 05:10:23;;;;;;;23.15;10.80;;;;;;;3.92;100.00;103366.25;5049599;28;20079;-75
2023/01/24 05:12:49;;;;;;;24.65;10.93;;;;;;;3.96;100.00;103371.97;5048442;28;20139;-76
2023/01/24 05:15:17;;;;;;;30.17;12.18;;;;;;;3.98;100.00;103376.06;5045704;28;20053;-75
2023/01/24 05:17:44;;;;;;;30.73;14.07;;;;;;;3.98;100.00;103369.78;5049139;28;20059;-74
2023/01/24 05:20:11;;;;;;;32.33;12.80;;;;;;;3.99;100.00;103374.97;5049211;28;20443;-74
2023/01/24 05:22:38;;;;;;;25.65;10.50;;;;;;;3.97;100.00;103377.16;5047675;28;20059;-75
2023/01/24 05:25:05;;;;;;;28.60;13.32;;;;;;;3.95;100.00;103373.88;5046709;28;20049;-75
2023/01/24 05:27:31;;;;;;;31.90;13.18;;;;;;;3.96;100.00;103377.44;5047174;28;20045;-75
2023/01/24 05:29:58;;;;;;;29.60;13.05;;;;;;;3.97;100.00;103368.94;5048934;28;20545;-75
2023/01/24 05:32:24;;;;;;;28.85;12.85;;;;;;;4.00;100.00;103379.34;5044465;28;20053;-75
2023/01/24 05:34:51;;;;;;;25.00;11.13;;;;;;;3.99;100.00;103377.72;5046789;28;20067;-77
2023/01/24 05:37:17;;;;;;;24.92;11.20;;;;;;;3.97;100.00;103373.59;5048551;28;20048;-74
2023/01/24 05:39:43;;;;;;;23.83;10.75;;;;;;;3.95;100.00;103384.03;5047874;28;20508;-76
2023/01/24 05:42:10;;;;;;;20.27;8.10;;;;;;;3.93;100.00;103376.13;5048207;28;20053;-74
2023/01/24 05:44:36;;;;;;;22.23;10.88;;;;;;;3.91;100.00;103392.00;5045084;28;20053;-75
2023/01/24 05:47:03;;;;;;;24.08;10.68;;;;;;;3.95;100.00;103395.00;5048403;28;20495;-75
2023/01/24 05:49:29;;;;;;;19.45;7.85;;;;;;;3.93;100.00;103387.06;5045558;28;20807;-76
2023/01/24 05:51:56;;;;;;;19.15;6.95;;;;;;;3.94;100.00;103398.81;5047446;28;20419;-76
2023/01/24 05:54:23;;;;;;;31.13;14.20;;;;;;;3.93;100.00;103394.47;5047308;28;20094;-78
2023/01/24 05:56:49;;;;;;;30.08;13.05;;;;;;;3.92;100.00;103393.63;5047816;28;20074;-76
2023/01/24 05:59:16;;;;;;;31.73;11.23;;;;;;;3.89;100.00;103404.38;5048554;28;20080;-76
2023/01/24 06:01:42;;;;;;;28.15;11.95;;;;;;;3.94;100.00;103398.81;5047319;28;20055;-74
2023/01/24 06:04:09;;;;;;;22.38;10.25;;;;;;;3.90;100.00;103404.09;5047281;28;20056;-74
2023/01/24 06:06:36;;;;;;;9.73;3.92;;;;;;;3.91;100.00;103402.16;5045989;28;20464;-76
2023/01/24 06:09:02;;;;;;;20.40;9.10;;;;;;;3.93;100.00;103406.25;5048004;28;20136;-75
2023/01/24 06:11:29;;;;;;;21.58;8.20;;;;;;;3.89;100.00;103413.41;5048142;28;20477;-75
2023/01/24 06:13:56;;;;;;;21.42;9.90;;;;;;;3.92;100.00;103415.56;5047385;28;20059;-74
2023/01/24 06:16:24;;;;;;;22.63;8.85;;;;;;;3.91;100.00;103419.41;5047812;28;20056;-77
2023/01/24 06:18:52;;;;;;;20.67;9.25;;;;;;;3.90;100.00;103417.78;5048030;28;20049;-75
2023/01/24 06:21:25;;;;;;;23.08;10.80;;;;;;;3.89;100.00;103420.81;5045566;28;20089;-76
2023/01/24 06:23:51;;;;;;;21.25;8.98;;;;;;;3.91;100.00;103424.88;5035863;28;20393;-76
2023/01/24 06:26:18;;;;;;;18.02;7.22;;;;;;;3.91;100.00;103427.63;5045171;28;20053;-76
2023/01/24 06:28:45;;;;;;;25.08;11.20;;;;;;;3.92;100.00;103429.25;5045466;28;20049;-77
2023/01/24 06:31:27;;;;;;;23.35;11.27;;;;;;;3.90;100.00;103428.75;5047025;28;20040;-76
2023/01/24 06:34:12;;;;;;;23.08;10.43;;;;;;;3.93;100.00;103433.66;5043849;28;20063;-76
2023/01/24 06:36:53;;;;;;;22.60;10.60;;;;;;;3.93;100.00;103428.16;5046490;28;20453;-75
2023/01/24 06:39:21;;;;;;;22.10;9.60;;;;;;;3.94;100.00;103435.28;5047850;28;20091;-75
2023/01/24 06:41:48;;;;;;;22.27;10.60;;;;;;;3.90;100.00;103434.22;5044852;28;20052;-77
2023/01/24 06:44:15;;;;;;;20.02;8.85;;;;;;;3.91;100.00;103444.06;5036776;28;20049;-78
2023/01/24 06:46:41;;;;;;;23.00;10.02;;;;;;;3.93;100.00;103446.50;5046490;28;20045;-76
2023/01/24 06:49:10;;;;;;;19.92;8.50;;;;;;;3.92;100.00;103442.94;5041386;28;20049;-76
2023/01/24 06:51:38;;;;;;;20.55;8.93;;;;;;;3.92;100.00;103450.38;5039568;28;20136;-76
2023/01/24 06:54:04;;;;;;;20.15;8.68;;;;;;;3.94;100.00;103446.22;5046084;28;20055;-74
2023/01/24 06:56:31;;;;;;;23.10;10.35;;;;;;;3.95;100.00;103449.78;5043916;28;20059;-76
2023/01/24 06:58:58;;;;;;;22.98;9.82;;;;;;;3.95;100.00;103456.06;5045355;28;20681;-76
2023/01/24 07:01:24;;;;;;;20.70;9.07;;;;;;;3.95;100.00;103452.53;5038341;28;20053;-75
2023/01/24 07:03:51;;;;;;;21.08;8.57;;;;;;;3.94;100.00;103457.19;5046406;28;20060;-76
2023/01/24 07:06:17;;;;;;;19.65;8.38;;;;;;;3.92;100.00;103459.38;5048044;28;20076;-74
2023/01/24 07:08:44;;;;;;;21.63;9.25;;;;;;;3.93;100.00;103466.53;5036724;28;20064;-77
2023/01/24 07:11:10;;;;;;;21.67;9.57;;;;;;;3.93;100.00;103454.72;5047215;28;20049;-75
2023/01/24 07:13:36;;;;;;;24.55;8.60;;;;;;;3.89;100.00;103459.16;5048043;28;20124;-75
2023/01/24 07:16:03;;;;;;;20.55;8.60;;;;;;;3.90;100.00;103467.09;5049025;28;20053;-75
2023/01/24 07:18:30;;;;;;;20.10;8.60;;;;;;;3.92;100.00;103464.88;5050712;28;20091;-76
2023/01/24 07:20:57;;;;;;;18.60;7.82;;;;;;;3.94;100.00;103467.31;5052567;28;20132;-74
2023/01/24 07:23:29;;;;;;;20.98;8.00;;;;;;;3.92;100.00;103453.09;5046000;28;21675;-74
2023/01/24 07:25:56;;;;;;;19.23;8.15;;;;;;;3.91;100.00;103465.97;5048308;28;20458;-76
2023/01/24 07:28:23;;;;;;;20.95;9.43;;;;;;;3.85;100.00;103467.13;5048782;28;20041;-77
2023/01/24 07:30:52;;;;;;;13.85;4.88;;;;;;;3.90;100.00;103461.59;5043276;28;20049;-77
2023/01/24 07:33:18;;;;;;;22.23;8.90;;;;;;;3.87;100.00;103469.56;5048201;28;20053;-75
2023/01/24 07:35:45;;;;;;;21.20;8.32;;;;;;;3.88;100.00;103466.53;5049785;28;20056;-74
2023/01/24 07:38:11;;;;;;;21.52;8.50;;;;;;;3.86;100.00;103466.03;5051354;28;20041;-75
2023/01/24 07:40:38;;;;;;;24.20;10.38;;;;;;;3.89;100.00;103481.91;5052147;28;20523;-74
2023/01/24 07:43:05;;;;;;;18.35;8.10;;;;;;;3.89;100.00;103476.41;5045493;28;20117;-75
2023/01/24 07:45:34;;;;;;;24.77;10.90;;;;;;;3.91;100.00;103476.13;5050784;28;20049;-75
2023/01/24 07:48:01;;;;;;;20.50;8.43;;;;;;;3.88;100.00;103480.25;5050153;28;20041;-76
2023/01/24 07:50:30;;;;;;;18.20;7.72;;;;;;;3.89;100.00;103481.06;5047236;28;20045;-75
2023/01/24 07:52:57;;;;;;;21.30;9.50;;;;;;;3.89;100.00;103487.38;5049779;28;20049;-77
2023/01/24 07:55:24;;;;;;;26.50;10.40;;;;;;;3.87;100.00;103484.09;5050946;28;20056;-75
2023/01/24 07:57:51;;;;;;;24.33;9.82;;;;;;;3.89;100.00;103487.38;5052084;28;20128;-77
2023/01/24 08:00:19;;;;;;;21.75;9.32;;;;;;;3.89;100.00;103492.84;5053852;28;20048;-75
2023/01/24 08:02:48;;;;;;;19.13;8.68;;;;;;;3.90;100.00;103491.75;5046714;28;20045;-77
2023/01/24 08:05:14;;;;;;;20.42;9.82;;;;;;;3.87;100.00;103486.84;5049828;28;20147;-71
2023/01/24 08:07:40;;;;;;;21.63;10.27;;;;;;;4.01;100.00;103496.03;5044546;28;20041;-72
2023/01/24 08:10:09;;;;;;;14.85;6.70;;;;;;;4.06;100.00;103492.44;5049458;28;20057;-76
2023/01/24 08:12:35;;;;;;;27.17;10.73;;;;;;;4.02;100.00;103489.44;5049886;28;20045;-77
2023/01/24 08:15:02;;;;;;;23.80;10.45;;;;;;;3.99;100.00;103492.78;5045306;28;20499;-77
2023/01/24 08:17:29;;;;;;;24.88;10.73;;;;;;;3.97;100.00;103505.09;5048644;28;20701;-75
2023/01/24 08:19:55;;;;;;;17.25;7.72;;;;;;;3.95;100.00;103499.91;5050483;28;20518;-75
2023/01/24 08:22:24;;;;;;;26.90;11.70;;;;;;;4.02;100.00;103508.63;5047043;28;20045;-76
2023/01/24 08:24:51;;;;;;;26.80;10.32;;;;;;;3.97;100.00;103502.38;5041492;28;20114;-75
2023/01/24 08:27:17;;;;;;;25.80;11.75;;;;;;;4.03;100.00;103510.28;5048747;28;20059;-76
2023/01/24 08:29:44;;;;;;;21.80;10.02;;;;;;;4.03;100.00;103501.22;5041858;28;21262;-76
2023/01/24 08:32:10;;;;;;;30.15;12.65;;;;;;;4.02;100.00;103511.34;5057556;28;20063;-76
2023/01/24 08:34:37;;;;;;;31.35;11.25;;;;;;;4.01;100.00;103511.63;5045152;28;20056;-77
2023/01/24 08:37:03;;;;;;;27.85;13.05;;;;;;;4.01;100.00;103517.94;5048673;28;20057;-78
2023/01/24 08:39:30;;;;;;;27.92;11.60;;;;;;;4.01;100.00;103506.16;5049916;28;20171;-76
2023/01/24 08:41:56;;;;;;;25.48;11.00;;;;;;;4.00;100.00;103510.84;5048811;28;20049;-75
2023/01/24 08:44:23;;;;;;;26.88;11.63;;;;;;;4.04;100.00;103514.66;5047522;28;20191;-77
2023/01/24 08:46:49;;;;;;;25.67;10.90;;;;;;;4.05;100.00;103526.44;5045702;28;20512;-77
2023/01/24 08:49:16;;;;;;;29.38;12.15;;;;;;;4.07;100.00;103522.28;5051784;28;20083;-79
2023/01/24 08:51:42;;;;;;;20.15;8.02;;;;;;;4.04;100.00;103528.34;5049917;28;20132;-75
2023/01/24 08:54:09;;;;;;;23.13;8.98;;;;;;;4.02;100.00;103519.56;5045908;28;20053;-76
2023/01/24 08:56:35;;;;;;;28.63;13.07;;;;;;;4.07;100.00;103527.78;5048545;28;20132;-76
2023/01/24 08:59:02;;;;;;;24.75;11.82;;;;;;;4.10;100.00;103529.13;5046341;28;20515;-76
2023/01/24 09:01:29;;;;;;;28.42;12.30;;;;;;;4.15;100.00;103531.84;5043693;28;20677;-76
2023/01/24 09:03:56;;;;;;;31.02;14.90;;;;;;;4.12;100.00;103535.16;5044936;28;20148;-77
2023/01/24 09:06:23;;;;;;;24.85;11.00;;;;;;;4.13;100.00;103534.88;5047899;28;20045;-76
2023/01/24 09:08:52;;;;;;;24.67;10.70;;;;;;;4.18;100.00;103534.81;5038518;28;20045;-77
2023/01/24 09:11:19;;;;;;;22.70;9.63;;;;;;;4.20;100.00;103540.00;5045062;28;20053;-77
2023/01/24 09:13:45;;;;;;;30.52;13.13;;;;;;;4.18;100.00;103531.22;5047450;28;20049;-79
2023/01/24 09:16:12;;;;;;;24.98;10.85;;;;;;;4.17;100.00;103532.34;5048330;28;20052;-78
2023/01/24 09:18:38;;;;;;;24.95;11.88;;;;;;;4.18;100.00;103534.81;5050210;28;20079;-77
2023/01/24 09:21:05;;;;;;;25.50;11.38;;;;;;;4.19;100.00;103543.84;5044370;28;20069;-76
2023/01/24 09:23:31;;;;;;;21.45;9.10;;;;;;;4.23;100.00;103539.44;5044711;28;20063;-76
2023/01/24 09:25:58;;;;;;;29.15;12.55;;;;;;;4.24;100.00;103539.16;5047631;28;20127;-75
2023/01/24 09:28:24;;;;;;;20.45;9.32;;;;;;;4.28;100.00;103537.47;5044415;28;20041;-77
2023/01/24 09:30:51;;;;;;;25.25;10.40;;;;;;;4.26;100.00;103536.13;5047548;28;20502;-76
2023/01/24 09:33:18;;;;;;;20.20;8.63;;;;;;;4.32;100.00;103544.00;5044563;28;20511;-75
2023/01/24 09:35:59;;;;;;;26.38;10.10;;;;;;;4.30;100.00;103550.88;5047162;28;20063;-76
2023/01/24 09:38:27;;;;;;;16.23;5.13;;;;;;;4.32;100.00;103545.94;5050426;28;20077;-77
2023/01/24 09:41:03;;;;;;;26.08;10.55;;;;;;;4.35;100.00;103551.66;5040611;28;20064;-77
2023/01/24 09:43:51;;;;;;;29.65;12.77;;;;;;;4.33;100.00;103558.53;5042521;28;20045;-75
2023/01/24 09:46:40;;;;;;;27.30;12.13;;;;;;;4.34;100.00;103551.94;5039920;28;20044;-76
2023/01/24 09:49:08;;;;;;;31.30;13.65;;;;;;;4.36;100.00;103553.28;5043720;28;20622;-77
2023/01/24 09:51:40;;;;;;;30.80;14.15;;;;;;;4.39;100.00;103544.47;5047771;28;20055;-77
2023/01/24 09:54:16;;;;;;;35.50;16.27;;;;;;;4.37;100.00;103548.63;5045949;28;20827;-75
2023/01/24 09:56:46;;;;;;;31.17;13.90;;;;;;;4.31;100.00;103550.59;5043548;28;20048;-76
2023/01/24 09:59:24;;;;;;;29.27;12.05;;;;;;;4.35;100.00;103554.41;5045906;28;20129;-76
2023/01/24 10:01:52;;;;;;;29.42;12.38;;;;;;;4.37;100.00;103552.19;5045088;28;20510;-77
2023/01/24 10:04:46;;;;;;;38.13;16.38;;;;;;;4.40;100.00;103554.38;5048798;28;20207;-76
2023/01/24 10:07:28;;;;;;;35.00;18.48;;;;;;;4.40;100.00;103559.84;5040736;28;20790;-78
2023/01/24 10:10:09;;;;;;;28.05;10.95;;;;;;;4.36;100.00;103557.97;5033385;28;20055;-76
2023/01/24 10:13:13;;;;;;;35.72;16.92;;;;;;;4.35;100.00;103550.81;5047246;28;20049;-74
2023/01/24 10:15:43;;;;;;;33.92;16.70;;;;;;;4.43;100.00;103561.19;5046203;28;20133;-77
2023/01/24 10:18:34;;;;;;;32.53;16.48;;;;;;;4.44;100.00;103552.69;5045362;28;20055;-77
2023/01/24 10:21:34;;;;;;;29.30;12.55;;;;;;;4.42;100.00;103552.13;5041166;28;20053;-77
2023/01/24 10:24:06;;;;;;;27.45;11.77;;;;;;;4.45;100.00;103551.56;5041790;28;20048;-76
2023/01/24 10:26:38;;;;;;;33.72;16.58;;;;;;;4.47;100.00;103560.34;5046995;28;20531;-78
2023/01/24 10:29:37;;;;;;;25.95;11.63;;;;;;;4.43;100.00;103550.22;5042368;28;20403;-77
2023/01/24 10:32:05;;;;;;;25.20;11.05;;;;;;;4.44;100.00;103544.47;5006459;28;20048;-77
2023/01/24 10:34:37;;;;;;;28.13;12.32;;;;;;;4.47;100.00;103549.38;5020263;28;20451;-76
2023/01/24 10:37:09;;;;;;;26.13;12.15;;;;;;;4.49;100.00;103552.63;5028071;28;20049;-76
2023/01/24 10:39:37;;;;;;;17.58;8.35;;;;;;;4.46;100.00;103541.44;5014527;28;20534;-76
2023/01/24 10:42:22;;;;;;;18.60;8.13;;;;;;;4.48;100.00;103544.69;5026828;28;20599;-76
2023/01/24 10:44:50;;;;;;;30.57;13.17;;;;;;;4.48;100.00;103540.03;5019688;28;20151;-77
2023/01/24 10:47:50;;;;;;;29.35;14.65;;;;;;;4.51;100.00;103549.59;5017923;28;20052;-78
2023/01/24 10:50:18;;;;;;;27.27;11.90;;;;;;;4.52;100.00;103552.06;5019262;28;20581;-77
2023/01/24 10:52:48;;;;;;;22.77;10.60;;;;;;;4.52;100.00;103541.09;5022202;28;20063;-78
2023/01/24 10:55:26;;;;;;;20.52;9.18;;;;;;;4.49;100.00;103541.66;5018715;28;20441;-77
2023/01/24 10:57:54;;;;;;;14.07;5.65;;;;;;;4.44;100.00;103538.97;5025619;28;20052;-77
2023/01/24 11:00:29;;;;;;;27.42;14.60;;;;;;;4.54;100.00;103538.88;5019159;28;21111;-75
2023/01/24 11:03:22;;;;;;;25.65;12.20;;;;;;;4.55;100.00;103539.69;5025863;28;20053;-77
2023/01/24 11:05:54;;;;;;;26.58;13.57;;;;;;;4.60;100.00;103540.47;5020436;28;20053;-77
2023/01/24 11:08:26;;;;;;;29.23;13.93;;;;;;;4.62;100.00;103540.16;5020687;28;20095;-76
2023/01/24 11:11:00;;;;;;;26.95;12.98;;;;;;;4.62;100.00;103527.28;5025690;28;20060;-77
2023/01/24 11:13:26;;;;;;;31.10;14.90;;;;;;;4.66;100.00;103536.56;5025095;28;20411;-76
2023/01/24 11:16:02;;;;;;;36.58;14.82;;;;;;;4.67;100.00;103529.97;5022769;28;20057;-76
2023/01/24 11:18:31;;;;;;;25.50;11.48;;;;;;;4.72;100.00;103532.66;5020300;28;20049;-76
2023/01/24 11:21:14;;;;;;;32.58;14.57;;;;;;;4.71;100.00;103530.19;5020328;28;20048;-76
2023/01/24 11:23:42;;;;;;;24.42;9.52;;;;;;;4.73;100.00;103530.75;5018213;28;20099;-76
2023/01/24 11:26:29;;;;;;;28.58;13.82;;;;;;;4.71;100.00;103522.81;5022949;28;20558;-75
2023/01/24 11:29:08;;;;;;;27.90;12.88;;;;;;;4.74;100.00;103522.22;5022828;28;20583;-77
2023/01/24 11:31:51;;;;;;;10.23;4.40;;;;;;;4.78;100.00;103528.75;5025881;28;20203;-76
2023/01/24 11:34:46;;;;;;;24.92;10.85;;;;;;;4.73;100.00;103522.50;5026268;28;20860;-78
2023/01/24 11:37:50;;;;;;;29.85;15.38;;;;;;;4.73;100.00;103515.09;5031957;28;20055;-77
2023/01/24 11:40:36;;;;;;;26.95;13.32;;;;;;;4.74;100.00;103515.91;5021951;28;20041;-77
2023/01/24 11:43:31;;;;;;;31.02;15.05;;;;;;;4.77;100.00;103520.81;5023029;28;20045;-76
2023/01/24 11:46:17;;;;;;;30.08;15.48;;;;;;;4.69;100.00;103514.03;5026040;28;20439;-77
2023/01/24 11:48:56;;;;;;;35.38;17.30;;;;;;;4.71;100.00;103516.50;5027633;28;20064;-76
2023/01/24 11:51:30;;;;;;;35.08;20.02;;;;;;;4.77;100.00;103515.34;5029363;28;20047;-76
2023/01/24 11:54:05;;;;;;;32.80;19.13;;;;;;;4.80;100.00;103514.75;5039202;28;20764;-76
2023/01/24 11:56:37;;;;;;;34.83;19.63;;;;;;;4.85;100.00;103511.94;5038039;28;20045;-74
2023/01/24 11:59:29;;;;;;;26.13;14.13;;;;;;;4.85;100.00;103509.19;5032952;28;20128;-75
2023/01/24 12:02:17;;;;;;;28.20;15.02;;;;;;;4.94;100.00;103504.72;5030575;28;20045;-74